Time;durP1;ratioP1;P1;durP2;ratioP2;P2;SDS_P1;SDS_P2;PMS_P1;PMS_P2;Temp;Humidity;BMP_temperature;BMP_pressure;BME280_temperature;BME280_humidity;BME280_pressure;Samples;Min_cycle;Max_cycle;Signal;HPM_P1;HPM_P2
2021/07/15 00:01:56;;;;;;;35.65;21.42;;;;;;;17.40;100.00;99567.88;5018024;28;20519;-69
2021/07/15 00:04:24;;;;;;;42.58;22.95;;;;;;;17.35;100.00;99570.19;5018073;28;20050;-69
2021/07/15 00:06:51;;;;;;;43.50;22.92;;;;;;;17.33;100.00;99572.19;5018274;28;20045;-70
2021/07/15 00:09:19;;;;;;;32.28;20.27;;;;;;;17.33;100.00;99564.94;5017912;28;20103;-68
2021/07/15 00:11:47;;;;;;;35.45;19.30;;;;;;;17.20;100.00;99557.22;5018036;28;20054;-68
2021/07/15 00:14:18;;;;;;;30.30;17.88;;;;;;;17.31;100.00;99575.03;5017343;28;20078;-69
2021/07/15 00:16:47;;;;;;;31.38;18.65;;;;;;;17.28;100.00;99585.28;5017835;28;20127;-69
2021/07/15 00:19:15;;;;;;;29.58;17.95;;;;;;;17.33;100.00;99588.38;5016848;28;20142;-69
2021/07/15 00:21:42;;;;;;;39.42;20.55;;;;;;;17.23;100.00;99591.94;5017728;28;20111;-69
2021/07/15 00:24:08;;;;;;;42.63;22.40;;;;;;;17.14;100.00;99582.09;5016749;28;20119;-69
2021/07/15 00:26:35;;;;;;;38.05;20.85;;;;;;;17.19;100.00;99587.88;5017538;28;20054;-68
2021/07/15 00:29:03;;;;;;;44.30;23.27;;;;;;;17.22;100.00;99590.25;5017639;28;20104;-69
2021/07/15 00:31:30;;;;;;;43.50;23.10;;;;;;;17.17;100.00;99579.06;5016580;28;20046;-69
2021/07/15 00:33:57;;;;;;;39.83;22.55;;;;;;;17.18;100.00;99582.63;5017525;28;20046;-68
2021/07/15 00:36:24;;;;;;;44.88;23.95;;;;;;;17.22;100.00;99578.66;5017782;28;20053;-69
2021/07/15 00:38:50;;;;;;;49.63;24.23;;;;;;;17.21;100.00;99582.34;5016390;28;20111;-69
2021/07/15 00:41:17;;;;;;;42.88;23.77;;;;;;;17.22;100.00;99586.75;5017354;28;20116;-69
2021/07/15 00:43:44;;;;;;;45.88;24.05;;;;;;;17.15;100.00;99561.38;5017552;28;20474;-69
2021/07/15 00:46:10;;;;;;;45.67;23.77;;;;;;;17.24;100.00;99590.13;5017166;28;20060;-69
2021/07/15 00:48:37;;;;;;;46.70;24.00;;;;;;;17.23;100.00;99586.56;5016271;28;20459;-69
2021/07/15 00:51:05;;;;;;;48.42;25.05;;;;;;;17.19;100.00;99579.78;5017222;28;20096;-70
2021/07/15 00:53:33;;;;;;;43.78;24.35;;;;;;;17.23;100.00;99589.25;5017442;28;20046;-69
2021/07/15 00:56:01;;;;;;;41.03;23.90;;;;;;;17.19;100.00;99587.03;5016068;28;20424;-69
2021/07/15 00:58:29;;;;;;;57.30;26.58;;;;;;;17.15;100.00;99589.16;5017244;28;20054;-69
2021/07/15 01:00:56;;;;;;;59.53;25.95;;;;;;;17.13;100.00;99585.78;5049034;28;20127;-69
2021/07/15 01:03:23;;;;;;;69.65;27.77;;;;;;;17.14;100.00;99590.19;5016986;28;20104;-69
2021/07/15 01:05:54;;;;;;;64.72;26.20;;;;;;;17.15;100.00;99593.72;5016750;28;20061;-69
2021/07/15 01:08:21;;;;;;;60.03;26.00;;;;;;;17.16;100.00;99585.47;5016966;28;20058;-69
2021/07/15 01:10:47;;;;;;;69.80;26.83;;;;;;;17.14;100.00;99590.19;5016830;28;20056;-69
2021/07/15 01:13:44;;;;;;;61.55;25.58;;;;;;;17.10;100.00;99592.31;5016971;28;20337;-69
2021/07/15 01:16:30;;;;;;;52.60;25.15;;;;;;;17.04;100.00;99590.22;5016932;28;20053;-69
2021/07/15 01:18:59;;;;;;;63.30;26.58;;;;;;;17.05;100.00;99593.78;5017045;28;20120;-69
2021/07/15 01:22:06;;;;;;;82.60;26.70;;;;;;;17.04;100.00;99598.31;5016658;28;20049;-69
2021/07/15 01:24:54;;;;;;;64.90;25.30;;;;;;;17.04;100.00;99594.75;5016315;28;20050;-69
2021/07/15 01:27:26;;;;;;;66.03;26.17;;;;;;;17.03;100.00;99595.75;5016355;28;20057;-69
2021/07/15 01:30:18;;;;;;;67.03;25.08;;;;;;;17.03;100.00;99595.75;5049023;28;20403;-69
2021/07/15 01:32:55;;;;;;;92.38;27.38;;;;;;;17.04;100.00;99605.53;5016788;28;20463;-69
2021/07/15 01:35:27;;;;;;;74.35;25.73;;;;;;;17.04;100.00;99597.44;5016681;28;20069;-68
2021/07/15 01:37:57;;;;;;;67.05;25.30;;;;;;;17.02;100.00;99599.47;5016195;28;20077;-69
2021/07/15 01:40:29;;;;;;;54.70;22.70;;;;;;;17.04;100.00;99605.53;5016583;28;20052;-68
2021/07/15 01:43:06;;;;;;;45.95;19.50;;;;;;;16.96;100.00;99604.41;5016169;28;20509;-69
2021/07/15 01:45:33;;;;;;;42.50;19.20;;;;;;;16.91;100.00;99606.72;5016251;28;20108;-69
2021/07/15 01:48:00;;;;;;;40.30;19.25;;;;;;;16.86;100.00;99606.31;5016377;28;20403;-70
2021/07/15 01:50:27;;;;;;;46.00;19.02;;;;;;;16.80;100.00;99601.50;5014995;28;20054;-69
2021/07/15 01:52:58;;;;;;;61.00;19.95;;;;;;;16.81;100.00;99608.59;5015265;28;20054;-69
2021/07/15 01:55:25;;;;;;;56.90;19.45;;;;;;;16.80;100.00;99612.28;5015235;28;20077;-69
2021/07/15 01:57:53;;;;;;;49.95;18.70;;;;;;;16.80;100.00;99612.28;5015770;28;20492;-70
2021/07/15 02:00:20;;;;;;;50.17;18.10;;;;;;;16.77;100.00;99607.22;5016156;28;20613;-69
2021/07/15 02:02:47;;;;;;;52.60;17.77;;;;;;;16.79;100.00;99614.13;5016057;28;20049;-69
2021/07/15 02:05:17;;;;;;;50.45;17.20;;;;;;;16.76;100.00;99609.03;5016065;28;20077;-69
2021/07/15 02:07:47;;;;;;;51.90;17.13;;;;;;;16.76;100.00;99610.88;5015694;28;20050;-69
2021/07/15 02:10:19;;;;;;;61.35;17.95;;;;;;;16.78;100.00;99606.22;5015772;28;20085;-69
2021/07/15 02:12:46;;;;;;;34.25;14.10;;;;;;;16.73;100.00;99601.28;5015628;28;20435;-69
2021/07/15 02:15:13;;;;;;;38.90;14.43;;;;;;;16.77;100.00;99609.91;5015877;28;20050;-69
2021/07/15 02:17:42;;;;;;;44.05;15.10;;;;;;;16.77;100.00;99612.59;5015615;28;20049;-69
2021/07/15 02:20:13;;;;;;;62.58;16.15;;;;;;;16.76;100.00;99616.28;5015517;28;20053;-68
2021/07/15 02:22:40;;;;;;;37.15;13.60;;;;;;;16.76;100.00;99616.28;5015524;28;20050;-69
2021/07/15 02:25:08;;;;;;;42.30;14.50;;;;;;;16.70;100.00;99602.41;5015381;28;20050;-69
2021/07/15 02:27:37;;;;;;;36.30;13.07;;;;;;;16.75;100.00;99615.44;5015724;28;20135;-69
2021/07/15 02:30:09;;;;;;;37.70;12.38;;;;;;;16.72;100.00;99615.72;5015636;28;20057;-69
2021/07/15 02:32:47;;;;;;;40.22;11.15;;;;;;;16.71;100.00;99614.03;5015387;28;20060;-69
2021/07/15 02:35:17;;;;;;;38.28;12.27;;;;;;;16.73;100.00;99613.88;5015339;28;20426;-69
2021/07/15 02:37:45;;;;;;;36.22;11.65;;;;;;;16.70;100.00;99604.25;5015047;28;20084;-69
2021/07/15 02:40:14;;;;;;;32.58;11.30;;;;;;;16.74;100.00;99619.13;5015537;28;20057;-69
2021/07/15 02:42:44;;;;;;;35.78;11.68;;;;;;;16.73;100.00;99616.56;5015143;28;20061;-69
2021/07/15 02:45:14;;;;;;;42.22;12.75;;;;;;;16.74;100.00;99611.06;5015299;28;20141;-69
2021/07/15 02:47:43;;;;;;;32.47;12.13;;;;;;;16.73;100.00;99611.19;5015276;28;20345;-69
2021/07/15 02:50:12;;;;;;;39.08;12.45;;;;;;;16.72;100.00;99610.31;5014391;28;20107;-68
2021/07/15 02:52:39;;;;;;;36.47;11.80;;;;;;;16.75;100.00;99614.56;5030756;28;20088;-68
2021/07/15 02:55:07;;;;;;;24.48;10.32;;;;;;;16.75;100.00;99618.13;5015506;28;20080;-68
2021/07/15 02:57:51;;;;;;;35.50;11.75;;;;;;;16.73;100.00;99624.66;5014118;28;20061;-69
2021/07/15 03:00:19;;;;;;;30.52;11.00;;;;;;;16.75;100.00;99628.06;5015174;28;20180;-68
2021/07/15 03:03:04;;;;;;;21.92;9.93;;;;;;;16.74;100.00;99629.91;5015314;28;20387;-68
2021/07/15 03:05:41;;;;;;;22.85;9.52;;;;;;;16.75;100.00;99626.22;5015231;28;20050;-69
2021/07/15 03:08:13;;;;;;;23.50;9.40;;;;;;;16.72;100.00;99626.50;5015342;28;20107;-68
2021/07/15 03:10:40;;;;;;;34.45;9.80;;;;;;;16.73;100.00;99627.34;5015165;28;20054;-69
2021/07/15 03:13:09;;;;;;;15.52;7.70;;;;;;;16.73;100.00;99617.44;5014126;28;20131;-69
2021/07/15 03:15:40;;;;;;;23.70;8.60;;;;;;;16.69;100.00;99618.72;5015077;28;20492;-68
2021/07/15 03:18:07;;;;;;;23.52;8.57;;;;;;;16.70;100.00;99618.59;5015294;28;20050;-69
2021/07/15 03:20:38;;;;;;;30.17;8.90;;;;;;;16.70;100.00;99628.50;5046618;28;20049;-69
2021/07/15 03:23:09;;;;;;;32.28;9.43;;;;;;;16.70;100.00;99620.41;5014915;28;20173;-69
2021/07/15 03:25:36;;;;;;;24.98;8.52;;;;;;;16.71;100.00;99627.50;5015196;28;20061;-69
2021/07/15 03:28:09;;;;;;;25.90;8.90;;;;;;;16.70;100.00;99623.09;5015141;28;20057;-68
2021/07/15 03:30:37;;;;;;;22.73;8.40;;;;;;;16.72;100.00;99625.66;5015208;28;20391;-69
2021/07/15 03:33:05;;;;;;;19.08;7.60;;;;;;;16.75;100.00;99619.97;5014845;28;20050;-68
2021/07/15 03:35:33;;;;;;;22.42;7.97;;;;;;;16.69;100.00;99627.63;5014808;28;20046;-68
2021/07/15 03:38:03;;;;;;;24.90;8.18;;;;;;;16.69;100.00;99633.03;5014704;28;20375;-69
2021/07/15 03:40:30;;;;;;;20.95;7.00;;;;;;;16.67;100.00;99620.72;5014765;28;20056;-69
2021/07/15 03:42:58;;;;;;;16.27;7.00;;;;;;;16.73;100.00;99630.06;5013509;28;20057;-68
2021/07/15 03:45:25;;;;;;;16.83;6.93;;;;;;;16.73;100.00;99633.59;5013651;28;20465;-69
2021/07/15 03:47:53;;;;;;;19.73;6.88;;;;;;;16.72;100.00;99637.28;5014918;28;20383;-68
2021/07/15 03:50:29;;;;;;;24.45;7.43;;;;;;;16.72;100.00;99642.66;5017843;28;20089;-69
2021/07/15 03:52:58;;;;;;;23.15;7.05;;;;;;;16.67;100.00;99635.03;5018410;28;20355;-69
2021/07/15 03:55:27;;;;;;;18.60;6.35;;;;;;;16.70;100.00;99632.06;5018479;28;20069;-68
2021/07/15 03:57:56;;;;;;;15.80;6.63;;;;;;;16.74;100.00;99642.53;5018152;28;20050;-69
2021/07/15 04:00:25;;;;;;;17.98;6.90;;;;;;;16.77;100.00;99650.34;5018166;28;20453;-68
2021/07/15 04:02:56;;;;;;;20.65;7.05;;;;;;;16.67;100.00;99629.63;5018272;28;20486;-69
2021/07/15 04:05:24;;;;;;;32.08;7.90;;;;;;;16.75;100.00;99644.22;5018311;28;20060;-68
2021/07/15 04:07:53;;;;;;;17.70;6.80;;;;;;;16.76;100.00;99645.91;5018124;28;20234;-69
2021/07/15 04:10:20;;;;;;;19.65;7.65;;;;;;;16.75;100.00;99642.38;5018145;28;20057;-68
2021/07/15 04:12:49;;;;;;;15.73;6.97;;;;;;;16.78;100.00;99646.63;5018124;28;20060;-68
2021/07/15 04:15:25;;;;;;;14.40;7.03;;;;;;;16.78;100.00;99647.47;5017046;28;20042;-69
2021/07/15 04:17:57;;;;;;;16.45;7.47;;;;;;;16.80;100.00;99660.81;4978919;28;20046;-68
2021/07/15 04:20:25;;;;;;;11.75;6.30;;;;;;;16.81;100.00;99657.97;4990304;28;20111;-68
2021/07/15 04:22:57;;;;;;;16.48;6.93;;;;;;;16.83;100.00;99663.19;5017818;28;20102;-68
2021/07/15 04:25:25;;;;;;;13.82;6.55;;;;;;;16.83;100.00;99660.50;5017775;28;20382;-69
2021/07/15 04:28:03;;;;;;;10.02;5.47;;;;;;;16.86;100.00;99662.91;5017600;28;20490;-69
2021/07/15 04:30:30;;;;;;;11.32;5.30;;;;;;;16.84;100.00;99660.34;5013171;28;20046;-69
2021/07/15 04:33:10;;;;;;;11.93;6.22;;;;;;;16.88;100.00;99669.00;4997878;28;20058;-69
2021/07/15 04:35:38;;;;;;;7.77;5.40;;;;;;;16.93;100.00;99677.50;4997262;28;20128;-68
2021/07/15 04:38:05;;;;;;;8.65;5.72;;;;;;;16.93;100.00;99682.03;4997882;28;20050;-69
2021/07/15 04:40:33;;;;;;;9.98;6.13;;;;;;;16.94;100.00;99679.19;4997962;28;20054;-68
2021/07/15 04:43:04;;;;;;;10.40;6.03;;;;;;;16.94;100.00;99683.75;4997737;28;20062;-69
2021/07/15 04:45:33;;;;;;;10.60;6.15;;;;;;;17.02;100.00;99683.03;4997600;28;20101;-69
2021/07/15 04:48:00;;;;;;;10.32;7.15;;;;;;;16.99;100.00;99691.41;4998057;28;20388;-69
2021/07/15 04:50:30;;;;;;;11.45;6.90;;;;;;;16.97;100.00;99688.84;4997633;28;20436;-70
2021/07/15 04:53:00;;;;;;;11.32;8.13;;;;;;;16.97;100.00;99688.84;4996545;28;20055;-70
2021/07/15 04:55:27;;;;;;;9.63;7.82;;;;;;;17.01;100.00;99695.66;4997790;28;20046;-69
2021/07/15 04:57:54;;;;;;;13.63;8.30;;;;;;;17.03;100.00;99690.13;4997723;28;20057;-69
2021/07/15 05:00:23;;;;;;;14.38;8.77;;;;;;;17.00;100.00;99698.47;4997331;28;20050;-70
2021/07/15 05:02:58;;;;;;;14.32;8.63;;;;;;;17.02;100.00;99696.50;4996440;28;20046;-69
2021/07/15 05:05:25;;;;;;;14.40;9.07;;;;;;;17.02;100.00;99693.81;4997132;28;20050;-69
2021/07/15 05:07:52;;;;;;;11.38;8.65;;;;;;;17.05;100.00;99690.84;4996209;28;20057;-69
2021/07/15 05:10:18;;;;;;;11.45;8.23;;;;;;;17.04;100.00;99686.41;4995887;28;20046;-69
2021/07/15 05:12:47;;;;;;;14.60;8.68;;;;;;;17.03;100.00;99687.41;4997486;28;20153;-70
2021/07/15 05:15:14;;;;;;;11.90;8.80;;;;;;;17.05;100.00;99694.38;4996277;28;20050;-69
2021/07/15 05:17:41;;;;;;;15.25;9.60;;;;;;;17.04;100.00;99692.66;4996236;28;20185;-69
2021/07/15 05:20:09;;;;;;;12.98;8.75;;;;;;;17.07;100.00;99695.09;4995834;28;20372;-69
2021/07/15 05:22:37;;;;;;;11.98;8.85;;;;;;;17.06;100.00;99693.38;4997258;28;20112;-70
2021/07/15 05:25:09;;;;;;;13.75;9.00;;;;;;;17.05;100.00;99680.06;4996517;28;20052;-69
2021/07/15 05:27:36;;;;;;;12.40;8.85;;;;;;;17.03;100.00;99676.63;4996518;28;20116;-69
2021/07/15 05:30:05;;;;;;;15.10;9.80;;;;;;;17.06;100.00;99682.59;4996427;28;20058;-71
2021/07/15 05:32:32;;;;;;;14.88;9.35;;;;;;;17.10;100.00;99688.53;5010268;28;20049;-69
2021/07/15 05:34:59;;;;;;;14.77;10.05;;;;;;;17.06;100.00;99676.34;5008005;28;20107;-69
2021/07/15 05:37:27;;;;;;;14.55;9.10;;;;;;;17.08;100.00;99686.00;5003346;28;20046;-69
2021/07/15 05:39:53;;;;;;;20.40;10.63;;;;;;;17.05;100.00;99690.84;4995927;28;20054;-69
2021/07/15 05:42:20;;;;;;;15.57;9.45;;;;;;;17.13;100.00;99682.84;4996024;28;20050;-69
2021/07/15 05:44:46;;;;;;;11.95;8.63;;;;;;;17.12;100.00;99685.69;4994842;28;20165;-69
2021/07/15 05:47:13;;;;;;;10.23;7.80;;;;;;;17.07;100.00;99688.84;4996521;28;20058;-69
2021/07/15 05:49:40;;;;;;;10.90;7.53;;;;;;;17.07;100.00;99695.09;4996761;28;20058;-68
2021/07/15 05:52:11;;;;;;;10.85;7.75;;;;;;;17.08;100.00;99706.72;4995344;28;20495;-70
2021/07/15 05:54:39;;;;;;;14.85;8.82;;;;;;;17.06;100.00;99708.72;5013168;28;20057;-68
2021/07/15 05:57:07;;;;;;;13.27;8.93;;;;;;;17.06;100.00;99717.63;5015665;28;20387;-76
2021/07/15 05:59:34;;;;;;;11.80;8.93;;;;;;;17.09;100.00;99719.19;5012229;28;20046;-70
2021/07/15 06:02:01;;;;;;;13.27;8.80;;;;;;;17.04;100.00;99713.38;5015457;28;20085;-72
2021/07/15 06:04:28;;;;;;;13.73;9.00;;;;;;;17.08;100.00;99717.50;5011043;28;20050;-70
2021/07/15 06:06:55;;;;;;;14.88;9.55;;;;;;;17.10;100.00;99710.09;5014929;28;20084;-70
2021/07/15 06:09:22;;;;;;;16.23;9.48;;;;;;;17.14;100.00;99714.22;5015284;28;20056;-71
2021/07/15 06:11:49;;;;;;;13.00;7.43;;;;;;;17.10;100.00;99716.34;5010057;28;20081;-69
2021/07/15 06:14:17;;;;;;;14.18;6.80;;;;;;;17.09;100.00;99703.88;5007217;28;20519;-71
2021/07/15 06:16:43;;;;;;;9.82;5.65;;;;;;;17.14;100.00;99718.75;5006083;28;20072;-70
2021/07/15 06:19:10;;;;;;;6.90;5.07;;;;;;;17.13;100.00;99715.22;4995342;28;20046;-69
2021/07/15 06:21:37;;;;;;;7.28;5.18;;;;;;;17.15;100.00;99729.38;5011257;28;20064;-70
2021/07/15 06:24:04;;;;;;;7.25;4.75;;;;;;;17.10;100.00;99731.66;5014089;28;20049;-70
2021/07/15 06:26:30;;;;;;;8.27;5.68;;;;;;;17.08;100.00;99725.56;5045022;28;20070;-69
2021/07/15 06:28:57;;;;;;;9.73;5.82;;;;;;;17.10;100.00;99727.13;5046077;28;20057;-71
2021/07/15 06:31:25;;;;;;;8.85;6.07;;;;;;;17.10;100.00;99734.38;5013816;28;20494;-71
2021/07/15 06:33:52;;;;;;;8.18;5.63;;;;;;;17.13;100.00;99739.47;5014669;28;20049;-69
2021/07/15 06:36:19;;;;;;;8.98;5.85;;;;;;;17.16;100.00;99741.88;5045687;28;20050;-69
2021/07/15 06:38:47;;;;;;;8.93;5.82;;;;;;;17.10;100.00;99745.16;5015651;28;20053;-68
2021/07/15 06:41:16;;;;;;;10.95;6.43;;;;;;;17.03;100.00;99727.84;5014196;28;20057;-68
2021/07/15 06:43:43;;;;;;;10.32;6.20;;;;;;;17.17;100.00;99754.34;4997868;28;20070;-69
2021/07/15 06:46:10;;;;;;;8.73;5.68;;;;;;;17.21;100.00;99755.78;5015337;28;20041;-69
2021/07/15 06:48:37;;;;;;;8.13;6.13;;;;;;;17.18;100.00;99750.69;5015647;28;20050;-69
2021/07/15 06:51:04;;;;;;;8.18;6.05;;;;;;;17.19;100.00;99760.47;5015167;28;20435;-69
2021/07/15 06:53:30;;;;;;;9.10;5.75;;;;;;;17.19;100.00;99768.56;5015338;28;20061;-70
2021/07/15 06:55:59;;;;;;;7.47;5.55;;;;;;;17.19;100.00;99762.31;5004679;28;20070;-69
2021/07/15 06:58:26;;;;;;;7.13;5.40;;;;;;;17.21;100.00;99768.41;4997422;28;20050;-69
2021/07/15 07:00:56;;;;;;;7.63;5.53;;;;;;;17.17;100.00;99767.84;4991741;28;20117;-69
2021/07/15 07:03:24;;;;;;;5.85;4.78;;;;;;;17.12;100.00;99756.66;4990168;28;20086;-69
2021/07/15 07:05:52;;;;;;;8.23;4.57;;;;;;;17.19;100.00;99773.09;5002130;28;20042;-69
2021/07/15 07:08:19;;;;;;;5.65;4.63;;;;;;;17.18;100.00;99766.88;5001718;28;20050;-68
2021/07/15 07:10:46;;;;;;;5.03;4.03;;;;;;;17.11;100.00;99779.22;4995022;28;20054;-69
2021/07/15 07:13:12;;;;;;;4.47;3.72;;;;;;;17.12;100.00;99782.75;5026062;28;20057;-68
2021/07/15 07:15:39;;;;;;;5.65;3.90;;;;;;;17.14;100.00;99781.63;4995374;28;20046;-68
2021/07/15 07:18:06;;;;;;;5.07;3.65;;;;;;;17.13;100.00;99788.00;4995405;28;20054;-69
2021/07/15 07:20:33;;;;;;;5.90;4.15;;;;;;;17.16;100.00;99789.56;5002205;28;20332;-68
2021/07/15 07:22:59;;;;;;;4.63;3.80;;;;;;;17.16;100.00;99781.47;4998561;28;20046;-68
2021/07/15 07:25:26;;;;;;;4.72;3.92;;;;;;;17.19;100.00;99794.66;4998604;28;20057;-68
2021/07/15 07:27:53;;;;;;;5.85;4.03;;;;;;;17.13;100.00;99787.16;4997225;28;20061;-69
2021/07/15 07:30:19;;;;;;;5.35;4.22;;;;;;;17.17;100.00;99785.88;4998192;28;20400;-68
2021/07/15 07:32:46;;;;;;;5.35;3.90;;;;;;;17.19;100.00;99794.66;5018364;28;20066;-69
2021/07/15 07:35:15;;;;;;;4.75;3.90;;;;;;;17.21;100.00;99801.63;5018964;28;20084;-69
2021/07/15 07:37:44;;;;;;;4.93;3.65;;;;;;;17.23;100.00;99813.09;5018759;28;20348;-69
2021/07/15 07:40:12;;;;;;;6.00;4.28;;;;;;;17.17;100.00;99808.28;5018658;28;20050;-69
2021/07/15 07:42:41;;;;;;;5.25;4.47;;;;;;;17.20;100.00;99812.53;5018206;28;20094;-69
2021/07/15 07:45:09;;;;;;;6.13;5.00;;;;;;;17.21;100.00;99792.69;5018412;28;20439;-69
2021/07/15 07:47:36;;;;;;;6.25;5.07;;;;;;;17.27;100.00;99807.44;5018588;28;20050;-69
2021/07/15 07:50:06;;;;;;;5.28;4.40;;;;;;;17.29;100.00;99805.44;5018323;28;20510;-69
2021/07/15 07:52:33;;;;;;;6.32;4.97;;;;;;;17.30;100.00;99813.38;5017384;28;20054;-70
2021/07/15 07:54:59;;;;;;;6.00;4.55;;;;;;;17.28;100.00;99822.59;5002456;28;20459;-69
2021/07/15 07:57:28;;;;;;;5.18;4.68;;;;;;;17.28;100.00;99819.91;4998416;28;20112;-71
2021/07/15 07:59:56;;;;;;;7.57;4.90;;;;;;;17.32;100.00;99826.72;5009981;28;20100;-70
2021/07/15 08:02:24;;;;;;;5.85;4.70;;;;;;;17.32;100.00;99824.03;5017149;28;20342;-71
2021/07/15 08:04:51;;;;;;;5.35;4.55;;;;;;;17.34;100.00;99822.03;5018049;28;20444;-70
2021/07/15 08:07:18;;;;;;;5.68;4.75;;;;;;;17.37;100.00;99819.03;5014131;28;20042;-70
2021/07/15 08:09:46;;;;;;;6.18;4.80;;;;;;;17.44;100.00;99819.31;4997041;28;20100;-70
2021/07/15 08:12:15;;;;;;;6.80;5.00;;;;;;;17.41;100.00;99816.88;5028445;28;20141;-70
2021/07/15 08:14:43;;;;;;;6.78;5.35;;;;;;;17.42;100.00;99821.31;4998247;28;20105;-69
2021/07/15 08:17:10;;;;;;;6.50;5.43;;;;;;;17.52;100.00;99822.09;4998160;28;20089;-69
2021/07/15 08:19:37;;;;;;;4.65;4.15;;;;;;;17.58;100.00;99826.91;4998243;28;20145;-71
2021/07/15 08:22:05;;;;;;;4.82;4.32;;;;;;;17.59;100.00;99827.78;5017514;28;20054;-68
2021/07/15 08:24:32;;;;;;;5.72;4.85;;;;;;;17.64;100.00;99820.06;5012779;28;20050;-69
2021/07/15 08:26:59;;;;;;;7.05;5.28;;;;;;;17.74;100.00;99826.28;5001385;28;20864;-70
2021/07/15 08:29:25;;;;;;;5.95;4.57;;;;;;;17.78;100.00;99824.16;4995574;28;20050;-69
2021/07/15 08:31:52;;;;;;;5.97;4.82;;;;;;;17.69;100.00;99817.78;4997746;28;20317;-72
2021/07/15 08:34:19;;;;;;;4.90;4.40;;;;;;;17.76;100.00;99818.06;5026128;28;20393;-69
2021/07/15 08:36:46;;;;;;;4.65;4.05;;;;;;;17.82;100.00;99827.38;4997600;28;20050;-69
2021/07/15 08:39:12;;;;;;;4.68;4.22;;;;;;;17.96;100.00;99829.59;4996887;28;20054;-68
2021/07/15 08:41:39;;;;;;;4.85;4.35;;;;;;;17.88;100.00;99830.31;5003960;28;20454;-69
2021/07/15 08:44:06;;;;;;;5.32;4.40;;;;;;;17.87;100.00;99835.91;5016639;28;20445;-68
2021/07/15 08:46:34;;;;;;;4.20;3.80;;;;;;;17.89;100.00;99836.59;5017276;28;20109;-69
2021/07/15 08:49:03;;;;;;;5.50;4.93;;;;;;;17.66;100.00;99820.78;5015848;28;20096;-70
2021/07/15 08:51:30;;;;;;;5.30;4.72;;;;;;;17.74;100.00;99845.19;5016882;28;20092;-69
2021/07/15 08:53:58;;;;;;;5.18;4.60;;;;;;;17.69;100.00;99844.78;5017192;28;20050;-69
2021/07/15 08:56:36;;;;;;;4.95;4.20;;;;;;;17.68;100.00;99844.91;5017174;28;20053;-69
2021/07/15 08:59:09;;;;;;;6.63;5.90;;;;;;;17.73;100.00;99848.03;5017359;28;20176;-68
2021/07/15 09:01:36;;;;;;;6.15;5.53;;;;;;;17.77;100.00;99842.16;5018087;28;20054;-69
2021/07/15 09:04:04;;;;;;;8.57;5.80;;;;;;;17.77;100.00;99850.28;5018421;28;20104;-69
2021/07/15 09:06:31;;;;;;;6.40;5.68;;;;;;;17.84;100.00;99846.97;5016080;28;20049;-69
2021/07/15 09:08:58;;;;;;;6.75;5.70;;;;;;;17.88;100.00;99848.41;4999369;28;20454;-68
2021/07/15 09:11:25;;;;;;;7.43;5.80;;;;;;;17.93;100.00;99851.50;4996590;28;20046;-69
2021/07/15 09:13:52;;;;;;;8.13;6.63;;;;;;;17.95;100.00;99856.72;4995455;28;20391;-69
2021/07/15 09:16:22;;;;;;;8.50;6.28;;;;;;;17.89;100.00;99850.09;5015689;28;20446;-70
2021/07/15 09:19:02;;;;;;;8.18;6.07;;;;;;;17.91;100.00;99864.28;5017048;28;20056;-69
2021/07/15 09:21:32;;;;;;;7.57;6.80;;;;;;;17.89;100.00;99864.44;5017003;28;20165;-69
2021/07/15 09:24:19;;;;;;;8.93;6.95;;;;;;;17.86;100.00;99861.19;5016866;28;20384;-70
2021/07/15 09:26:46;;;;;;;8.40;7.40;;;;;;;17.86;100.00;99866.59;4998516;28;20061;-69
2021/07/15 09:29:14;;;;;;;8.20;7.30;;;;;;;17.84;100.00;99863.19;4995885;28;20441;-69
2021/07/15 09:32:01;;;;;;;8.15;7.00;;;;;;;17.90;100.00;99867.97;4995609;28;20112;-70
2021/07/15 09:34:31;;;;;;;9.18;7.38;;;;;;;17.73;100.00;99845.31;4996785;28;20058;-69
2021/07/15 09:36:58;;;;;;;9.02;7.50;;;;;;;17.88;100.00;99881.63;4997069;28;20046;-70
2021/07/15 09:39:48;;;;;;;9.68;8.00;;;;;;;17.92;100.00;99885.75;4996160;28;20078;-70
2021/07/15 09:42:20;;;;;;;9.57;7.53;;;;;;;17.86;100.00;99883.63;5001712;28;20058;-69
2021/07/15 09:44:49;;;;;;;8.80;7.90;;;;;;;17.91;100.00;99893.97;5016471;28;20054;-69
2021/07/15 09:47:39;;;;;;;9.40;8.40;;;;;;;17.84;100.00;99895.56;5015789;28;20046;-70
2021/07/15 09:50:15;;;;;;;12.98;9.10;;;;;;;17.81;100.00;99885.91;5016103;28;20324;-70
2021/07/15 09:52:42;;;;;;;8.88;7.53;;;;;;;17.84;100.00;99887.47;5016567;28;20054;-69
2021/07/15 09:55:27;;;;;;;9.55;8.10;;;;;;;17.76;100.00;99897.16;5016040;28;20517;-69
2021/07/15 09:58:05;;;;;;;11.32;8.07;;;;;;;17.71;100.00;99896.75;5016065;28;20123;-69
2021/07/15 10:00:37;;;;;;;10.93;7.93;;;;;;;17.73;100.00;99894.78;5015888;28;20045;-69
2021/07/15 10:03:06;;;;;;;7.63;6.53;;;;;;;17.68;100.00;99888.94;5016288;28;20062;-70
2021/07/15 10:05:35;;;;;;;9.93;7.72;;;;;;;17.72;100.00;99892.22;5047321;28;20096;-70
2021/07/15 10:08:10;;;;;;;17.95;8.80;;;;;;;17.83;100.00;99888.47;5008188;28;20113;-70
2021/07/15 10:10:38;;;;;;;9.95;7.97;;;;;;;17.83;100.00;99891.19;4995239;28;20046;-70
2021/07/15 10:13:12;;;;;;;8.93;7.25;;;;;;;17.88;100.00;99902.38;4995060;28;20413;-70
2021/07/15 10:15:40;;;;;;;8.40;7.30;;;;;;;17.86;100.00;99899.00;4995980;28;20352;-70
2021/07/15 10:18:07;;;;;;;11.75;6.95;;;;;;;17.84;100.00;99906.38;4994801;28;20104;-72
2021/07/15 10:20:35;;;;;;;7.78;6.10;;;;;;;17.79;100.00;99909.50;5002995;28;20095;-71
2021/07/15 10:23:03;;;;;;;7.35;6.25;;;;;;;17.72;100.00;99911.97;5014418;28;20042;-69
2021/07/15 10:25:29;;;;;;;8.23;6.25;;;;;;;17.75;100.00;99917.06;4985385;28;20050;-71
2021/07/15 10:27:58;;;;;;;8.00;6.72;;;;;;;17.79;100.00;99912.22;4995026;28;20058;-71
2021/07/15 10:30:25;;;;;;;8.02;6.30;;;;;;;17.85;100.00;99918.88;4995369;28;20054;-70
2021/07/15 10:32:53;;;;;;;6.55;5.85;;;;;;;17.65;100.00;99905.41;4996119;28;20104;-70
2021/07/15 10:35:22;;;;;;;7.72;6.93;;;;;;;17.68;100.00;99923.19;4995802;28;20440;-73
2021/07/15 10:37:50;;;;;;;9.00;7.28;;;;;;;17.71;100.00;99928.28;4995849;28;20054;-70
2021/07/15 10:40:17;;;;;;;7.80;6.75;;;;;;;17.73;100.00;99927.16;4995724;28;20100;-71
2021/07/15 10:42:44;;;;;;;8.57;7.25;;;;;;;17.69;100.00;99928.44;4995645;28;20148;-69
2021/07/15 10:45:12;;;;;;;9.55;7.65;;;;;;;17.67;100.00;99927.75;4995966;28;20329;-71
2021/07/15 10:47:39;;;;;;;10.40;8.10;;;;;;;17.70;100.00;99938.22;4995667;28;20046;-71
2021/07/15 10:50:08;;;;;;;10.55;8.63;;;;;;;17.73;100.00;99932.56;4995893;28;20054;-71
2021/07/15 10:52:37;;;;;;;9.70;8.32;;;;;;;17.78;100.00;99932.94;4995928;28;20112;-70
2021/07/15 10:55:05;;;;;;;9.85;8.45;;;;;;;17.80;100.00;99932.81;4995593;28;20054;-70
2021/07/15 10:57:32;;;;;;;11.85;8.13;;;;;;;17.89;100.00;99929.25;4996412;28;20105;-70
2021/07/15 11:00:31;;;;;;;7.03;6.32;;;;;;;17.82;100.00;99933.50;5000030;28;20101;-70
2021/07/15 11:03:10;;;;;;;6.93;6.10;;;;;;;18.00;100.00;99941.72;5019273;28;20050;-71
2021/07/15 11:05:53;;;;;;;6.57;5.97;;;;;;;18.00;100.00;99938.16;4999657;28;20142;-69
2021/07/15 11:08:48;;;;;;;8.07;5.90;;;;;;;18.09;100.00;99931.03;4999290;28;20097;-70
2021/07/15 11:11:30;;;;;;;7.88;6.72;;;;;;;18.10;100.00;99938.16;4998680;28;20054;-70
2021/07/15 11:13:57;;;;;;;6.57;5.97;;;;;;;18.11;100.00;99939.84;4999210;28;20108;-71
2021/07/15 11:16:46;;;;;;;8.90;6.60;;;;;;;18.00;100.00;99943.53;4999685;28;20084;-71
2021/07/15 11:19:51;;;;;;;8.57;7.32;;;;;;;17.94;100.00;99945.00;4999675;28;20097;-71
2021/07/15 11:22:39;;;;;;;10.63;7.93;;;;;;;17.88;100.00;99948.28;5000001;28;20318;-68
2021/07/15 11:25:10;;;;;;;10.18;8.25;;;;;;;17.83;100.00;99950.56;4999253;28;20042;-69
2021/07/15 11:27:49;;;;;;;11.80;9.10;;;;;;;17.80;100.00;99956.28;4997500;28;20050;-69
2021/07/15 11:30:40;;;;;;;14.25;9.40;;;;;;;17.82;100.00;99956.97;4999348;28;20050;-69
2021/07/15 11:33:18;;;;;;;14.50;11.02;;;;;;;17.77;100.00;99968.22;5000493;28;20059;-69